Flinterborg — PHPH — position and weather

sailwx.info

Track history (hours):
 
Tides and Currents Weather Stations Pressure Air Temp Water Temp Dewpoint Dewpoint Depression Visibility Wind Speed Wind Dir Waves Ship Positions

Flinterborg

Last reported at 2015-Jul-01 01:33 UTC. Time now 2015-Jul-01 01:49 UTC.
Position N 54°11' E 009°29'.

Length 111 m; draft 3.9 m.

Type: Ship. MMSI: 245433000.

Date/timePositionNaut miles runAvg speedWind from/ knotsBaromVisibWave heightAir tempDewpointWater temp
2015-Jul-01 01:33N 54°11' E 009°29'6 6.0
2015-Jul-01 00:31N 54°07' E 009°20'8 8.0
2015-Jun-30 23:33N 53°60' E 009°17'4 3.8
2015-Jun-30 22:33N 53°57' E 009°14'4 4.2
2015-Jun-30 21:33N 53°54' E 009°09'2 1.8
2015-Jun-30 20:33N 53°53' E 009°06'1211.6
2015-Jun-30 19:33N 53°51' E 008°47'1313.1
2015-Jun-30 18:33N 53°58' E 008°29'18 7.8
2015-Jun-30 16:16N 53°51' E 008°01'1013.5
2015-Jun-30 15:33N 53°45' E 008°13'1614.8
2015-Jun-30 14:27N 53°34' E 008°33'1112.7
2015-Jun-30 13:33N 53°22' E 008°30'1211.9
2015-Jun-30 12:34N 53°11' E 008°34'8 7.8
2015-Jun-30 11:33N 53°06' E 008°44'0 0.0
2015-Jun-30 10:33N 53°06' E 008°44'0 0.0
2015-Jun-30 09:32N 53°06' E 008°44'0 0.0
2015-Jun-30 08:32N 53°06' E 008°44'0 0.0
2015-Jun-30 07:31N 53°06' E 008°44'0 0.0
2015-Jun-30 06:31N 53°06' E 008°44'0 0.0
2015-Jun-30 05:33N 53°06' E 008°44'0 0.0
2015-Jun-30 04:33N 53°06' E 008°44'0 0.0
2015-Jun-30 03:33N 53°06' E 008°44'0 0.0
2015-Jun-30 02:32N 53°06' E 008°44'0 0.0
2015-Jun-30 01:32N 53°06' E 008°44'0 0.0
2015-Jun-30 00:31N 53°06' E 008°44'0 0.0
2015-Jun-29 23:31N 53°06' E 008°44'0 0.0
2015-Jun-29 22:33N 53°06' E 008°44'0 0.0
2015-Jun-29 21:33N 53°06' E 008°44'0 0.0
2015-Jun-29 20:33N 53°06' E 008°44'0 0.0
2015-Jun-29 19:32N 53°06' E 008°44'0 0.0
2015-Jun-29 18:32N 53°06' E 008°44'0 0.0
2015-Jun-29 17:31N 53°06' E 008°44'0 0.0
2015-Jun-29 16:31N 53°06' E 008°44'0 0.0
2015-Jun-29 15:33N 53°06' E 008°44'0 0.0
2015-Jun-29 14:33N 53°06' E 008°44'0 0.0
2015-Jun-29 13:33N 53°06' E 008°44'0 0.0
2015-Jun-29 12:32N 53°06' E 008°44'0 0.0
2015-Jun-29 11:32N 53°06' E 008°44'0 0.0
2015-Jun-29 10:31N 53°06' E 008°44'0 0.0
2015-Jun-29 09:31N 53°06' E 008°44'0 0.0
2015-Jun-29 08:33N 53°06' E 008°44'0 0.0
2015-Jun-29 07:33N 53°06' E 008°44'0 0.0
2015-Jun-29 06:33N 53°06' E 008°44'0 0.0
2015-Jun-29 05:32N 53°06' E 008°44'0 0.0
2015-Jun-29 04:32N 53°06' E 008°44'0 0.0
2015-Jun-29 03:31N 53°06' E 008°44'0 0.0
2015-Jun-29 02:32N 53°06' E 008°44'0 0.0
2015-Jun-29 01:33N 53°06' E 008°44'0 0.0
2015-Jun-29 00:33N 53°06' E 008°44'0 0.0
2015-Jun-28 23:32N 53°06' E 008°44'0 0.0
2015-Jun-28 22:32N 53°06' E 008°44'0 0.0
2015-Jun-28 21:32N 53°06' E 008°44'0 0.0
2015-Jun-28 20:31N 53°06' E 008°44'0 0.0
2015-Jun-28 19:31N 53°06' E 008°44'0 0.0
2015-Jun-28 18:33N 53°06' E 008°44'0 0.0
2015-Jun-28 17:33N 53°06' E 008°44'0 0.0
2015-Jun-28 16:32N 53°06' E 008°44'0 0.0
2015-Jun-28 15:32N 53°06' E 008°44'0 0.0
2015-Jun-28 14:32N 53°06' E 008°44'0 0.0
2015-Jun-28 13:31N 53°06' E 008°44'0 0.0
2015-Jun-28 12:31N 53°06' E 008°44'0 0.0
2015-Jun-28 11:33N 53°06' E 008°44'0 0.0
2015-Jun-28 10:33N 53°06' E 008°44'0 0.0
2015-Jun-28 09:32N 53°06' E 008°44'0 0.0
2015-Jun-28 08:32N 53°06' E 008°44'0 0.0
2015-Jun-28 07:32N 53°06' E 008°44'0 0.0
2015-Jun-28 06:31N 53°06' E 008°44'0 0.0
2015-Jun-28 05:31N 53°06' E 008°44'0 0.0
2015-Jun-28 04:33N 53°06' E 008°44'0 0.0
2015-Jun-28 03:33N 53°06' E 008°44'0 0.0
2015-Jun-28 02:32N 53°06' E 008°44'0 0.0
2015-Jun-28 01:32N 53°06' E 008°44'0 0.0
2015-Jun-28 00:32N 53°06' E 008°44'0 0.0
2015-Jun-27 23:31N 53°06' E 008°44'0 0.0
2015-Jun-27 22:31N 53°06' E 008°44'0 0.0
2015-Jun-27 21:33N 53°06' E 008°44'0 0.0
2015-Jun-27 20:33N 53°06' E 008°44'0 0.0
2015-Jun-27 19:32N 53°06' E 008°44'0 0.0
2015-Jun-27 18:32N 53°06' E 008°44'0 0.0
2015-Jun-27 17:32N 53°06' E 008°44'0 0.0
2015-Jun-27 16:31N 53°06' E 008°44'0 0.0
2015-Jun-27 15:31N 53°06' E 008°44'0 0.0
2015-Jun-27 14:33N 53°06' E 008°44'0 0.0
2015-Jun-27 13:33N 53°06' E 008°44'0 0.0
2015-Jun-27 12:32N 53°06' E 008°44'0 0.0
2015-Jun-27 11:32N 53°06' E 008°44'0 0.0
2015-Jun-27 10:31N 53°06' E 008°44'0 0.0
2015-Jun-27 09:31N 53°06' E 008°44'0 0.0
2015-Jun-27 08:31N 53°06' E 008°44'0 0.0
2015-Jun-27 07:33N 53°06' E 008°44'0 0.0
2015-Jun-27 06:33N 53°06' E 008°44'0 0.0
2015-Jun-27 05:32N 53°06' E 008°44'0 0.0
2015-Jun-27 04:32N 53°06' E 008°44'0 0.0
2015-Jun-27 03:31N 53°06' E 008°44'0 0.0
2015-Jun-27 02:31N 53°06' E 008°44'0 0.0
2015-Jun-27 01:31N 53°06' E 008°44'0 0.0
2015-Jun-27 00:33N 53°06' E 008°44'0 0.0
2015-Jun-26 23:33N 53°06' E 008°44'0 0.0
2015-Jun-26 22:32N 53°06' E 008°44'0 0.0
2015-Jun-26 21:29N 53°06' E 008°44'0 0.0
2015-Jun-26 20:31N 53°06' E 008°44'0 0.0
2015-Jun-26 19:31N 53°06' E 008°44'2 2.2
2015-Jun-26 18:33N 53°07' E 008°41'1110.6
2015-Jun-26 17:33N 53°15' E 008°29'1312.6
2015-Jun-26 16:33N 53°27' E 008°29'1110.7
2015-Jun-26 15:33N 53°38' E 008°27'1414.1
2015-Jun-26 14:33N 53°47' E 008°09'1110.3
2015-Jun-26 13:30N 53°54' E 007°55'1111.6
2015-Jun-26 12:33N 53°59' E 008°12'1312.8
2015-Jun-26 11:33N 53°58' E 008°33'1313.2
2015-Jun-26 10:33N 53°50' E 008°52'1110.5
2015-Jun-26 09:33N 53°54' E 009°09'5 5.2
2015-Jun-26 08:33N 53°57' E 009°15'5 5.5
2015-Jun-26 07:33N 54°02' E 009°18'7 6.5
2015-Jun-26 06:32N 54°09' E 009°21'6 6.5
2015-Jun-26 05:33N 54°11' E 009°31'8 8.0
2015-Jun-26 04:33N 54°17' E 009°40'6 6.3
2015-Jun-26 03:34N 54°22' E 009°48'6 5.8
2015-Jun-26 02:33N 54°21' E 009°58'6 6.2
2015-Jun-26 01:33N 54°22' E 010°08'3 2.5
2015-Jun-26 00:33N 54°23' E 010°12'1110.9
2015-Jun-25 23:33N 54°32' E 010°24'1212.2
2015-Jun-25 22:33N 54°35' E 010°45'1212.2
2015-Jun-25 21:33N 54°36' E 011°06'1211.9
2015-Jun-25 20:33N 54°33' E 011°25'1212.1
2015-Jun-25 19:34N 54°29' E 011°45'1212.0
2015-Jun-25 18:32N 54°27' E 012°06'10611.6
2015-Jun-25 09:23N 55°27' E 014°39'1012.0
2015-Jun-25 08:32N 55°32' E 014°54'1212.2
2015-Jun-25 07:31N 55°38' E 015°13'12811.2
2015-Jun-24 20:04N 57°19' E 017°36'  
Track history (hours):
 
Tides and Currents Weather Stations Pressure Air Temp Water Temp Dewpoint Dewpoint Depression Visibility Wind Speed Wind Dir Waves Ship Positions

Flinterborg

Last reported at 2015-Jul-01 01:33 UTC. Time now 2015-Jul-01 01:49 UTC.
Position N 54°11' E 009°29'.

Length 111 m; draft 3.9 m.

Type: Ship. MMSI: 245433000.

Date/timePositionNaut miles runAvg speedWind from/ knotsBaromVisibWave heightAir tempDewpointWater temp
2015-Jul-01 01:33N 54°11' E 009°29'6 6.0
2015-Jul-01 00:31N 54°07' E 009°20'8 8.0
2015-Jun-30 23:33N 53°60' E 009°17'4 3.8
2015-Jun-30 22:33N 53°57' E 009°14'4 4.2
2015-Jun-30 21:33N 53°54' E 009°09'2 1.8
2015-Jun-30 20:33N 53°53' E 009°06'1211.6
2015-Jun-30 19:33N 53°51' E 008°47'1313.1
2015-Jun-30 18:33N 53°58' E 008°29'18 7.8
2015-Jun-30 16:16N 53°51' E 008°01'1013.5
2015-Jun-30 15:33N 53°45' E 008°13'1614.8
2015-Jun-30 14:27N 53°34' E 008°33'1112.7
2015-Jun-30 13:33N 53°22' E 008°30'1211.9
2015-Jun-30 12:34N 53°11' E 008°34'8 7.8
2015-Jun-30 11:33N 53°06' E 008°44'0 0.0
2015-Jun-30 10:33N 53°06' E 008°44'0 0.0
2015-Jun-30 09:32N 53°06' E 008°44'0 0.0
2015-Jun-30 08:32N 53°06' E 008°44'0 0.0
2015-Jun-30 07:31N 53°06' E 008°44'0 0.0
2015-Jun-30 06:31N 53°06' E 008°44'0 0.0
2015-Jun-30 05:33N 53°06' E 008°44'0 0.0
2015-Jun-30 04:33N 53°06' E 008°44'0 0.0
2015-Jun-30 03:33N 53°06' E 008°44'0 0.0
2015-Jun-30 02:32N 53°06' E 008°44'0 0.0
2015-Jun-30 01:32N 53°06' E 008°44'0 0.0
2015-Jun-30 00:31N 53°06' E 008°44'0 0.0
2015-Jun-29 23:31N 53°06' E 008°44'0 0.0
2015-Jun-29 22:33N 53°06' E 008°44'0 0.0
2015-Jun-29 21:33N 53°06' E 008°44'0 0.0
2015-Jun-29 20:33N 53°06' E 008°44'0 0.0
2015-Jun-29 19:32N 53°06' E 008°44'0 0.0
2015-Jun-29 18:32N 53°06' E 008°44'0 0.0
2015-Jun-29 17:31N 53°06' E 008°44'0 0.0
2015-Jun-29 16:31N 53°06' E 008°44'0 0.0
2015-Jun-29 15:33N 53°06' E 008°44'0 0.0
2015-Jun-29 14:33N 53°06' E 008°44'0 0.0
2015-Jun-29 13:33N 53°06' E 008°44'0 0.0
2015-Jun-29 12:32N 53°06' E 008°44'0 0.0
2015-Jun-29 11:32N 53°06' E 008°44'0 0.0
2015-Jun-29 10:31N 53°06' E 008°44'0 0.0
2015-Jun-29 09:31N 53°06' E 008°44'0 0.0
2015-Jun-29 08:33N 53°06' E 008°44'0 0.0
2015-Jun-29 07:33N 53°06' E 008°44'0 0.0
2015-Jun-29 06:33N 53°06' E 008°44'0 0.0
2015-Jun-29 05:32N 53°06' E 008°44'0 0.0
2015-Jun-29 04:32N 53°06' E 008°44'0 0.0
2015-Jun-29 03:31N 53°06' E 008°44'0 0.0
2015-Jun-29 02:32N 53°06' E 008°44'0 0.0
2015-Jun-29 01:33N 53°06' E 008°44'0 0.0
2015-Jun-29 00:33N 53°06' E 008°44'0 0.0
2015-Jun-28 23:32N 53°06' E 008°44'0 0.0
2015-Jun-28 22:32N 53°06' E 008°44'0 0.0
2015-Jun-28 21:32N 53°06' E 008°44'0 0.0
2015-Jun-28 20:31N 53°06' E 008°44'0 0.0
2015-Jun-28 19:31N 53°06' E 008°44'0 0.0
2015-Jun-28 18:33N 53°06' E 008°44'0 0.0
2015-Jun-28 17:33N 53°06' E 008°44'0 0.0
2015-Jun-28 16:32N 53°06' E 008°44'0 0.0
2015-Jun-28 15:32N 53°06' E 008°44'0 0.0
2015-Jun-28 14:32N 53°06' E 008°44'0 0.0
2015-Jun-28 13:31N 53°06' E 008°44'0 0.0
2015-Jun-28 12:31N 53°06' E 008°44'0 0.0
2015-Jun-28 11:33N 53°06' E 008°44'0 0.0
2015-Jun-28 10:33N 53°06' E 008°44'0 0.0
2015-Jun-28 09:32N 53°06' E 008°44'0 0.0
2015-Jun-28 08:32N 53°06' E 008°44'0 0.0
2015-Jun-28 07:32N 53°06' E 008°44'0 0.0
2015-Jun-28 06:31N 53°06' E 008°44'0 0.0
2015-Jun-28 05:31N 53°06' E 008°44'0 0.0
2015-Jun-28 04:33N 53°06' E 008°44'0 0.0
2015-Jun-28 03:33N 53°06' E 008°44'0 0.0
2015-Jun-28 02:32N 53°06' E 008°44'0 0.0
2015-Jun-28 01:32N 53°06' E 008°44'0 0.0
2015-Jun-28 00:32N 53°06' E 008°44'0 0.0
2015-Jun-27 23:31N 53°06' E 008°44'0 0.0
2015-Jun-27 22:31N 53°06' E 008°44'0 0.0
2015-Jun-27 21:33N 53°06' E 008°44'0 0.0
2015-Jun-27 20:33N 53°06' E 008°44'0 0.0
2015-Jun-27 19:32N 53°06' E 008°44'0 0.0
2015-Jun-27 18:32N 53°06' E 008°44'0 0.0
2015-Jun-27 17:32N 53°06' E 008°44'0 0.0
2015-Jun-27 16:31N 53°06' E 008°44'0 0.0
2015-Jun-27 15:31N 53°06' E 008°44'0 0.0
2015-Jun-27 14:33N 53°06' E 008°44'0 0.0
2015-Jun-27 13:33N 53°06' E 008°44'0 0.0
2015-Jun-27 12:32N 53°06' E 008°44'0 0.0
2015-Jun-27 11:32N 53°06' E 008°44'0 0.0
2015-Jun-27 10:31N 53°06' E 008°44'0 0.0
2015-Jun-27 09:31N 53°06' E 008°44'0 0.0
2015-Jun-27 08:31N 53°06' E 008°44'0 0.0
2015-Jun-27 07:33N 53°06' E 008°44'0 0.0
2015-Jun-27 06:33N 53°06' E 008°44'0 0.0
2015-Jun-27 05:32N 53°06' E 008°44'0 0.0
2015-Jun-27 04:32N 53°06' E 008°44'0 0.0
2015-Jun-27 03:31N 53°06' E 008°44'0 0.0
2015-Jun-27 02:31N 53°06' E 008°44'0 0.0
2015-Jun-27 01:31N 53°06' E 008°44'0 0.0
2015-Jun-27 00:33N 53°06' E 008°44'0 0.0
2015-Jun-26 23:33N 53°06' E 008°44'0 0.0
2015-Jun-26 22:32N 53°06' E 008°44'0 0.0
2015-Jun-26 21:29N 53°06' E 008°44'0 0.0
2015-Jun-26 20:31N 53°06' E 008°44'0 0.0
2015-Jun-26 19:31N 53°06' E 008°44'2 2.2
2015-Jun-26 18:33N 53°07' E 008°41'1110.6
2015-Jun-26 17:33N 53°15' E 008°29'1312.6
2015-Jun-26 16:33N 53°27' E 008°29'1110.7
2015-Jun-26 15:33N 53°38' E 008°27'1414.1
2015-Jun-26 14:33N 53°47' E 008°09'1110.3
2015-Jun-26 13:30N 53°54' E 007°55'1111.6
2015-Jun-26 12:33N 53°59' E 008°12'1312.8
2015-Jun-26 11:33N 53°58' E 008°33'1313.2
2015-Jun-26 10:33N 53°50' E 008°52'1110.5
2015-Jun-26 09:33N 53°54' E 009°09'5 5.2
2015-Jun-26 08:33N 53°57' E 009°15'5 5.5
2015-Jun-26 07:33N 54°02' E 009°18'7 6.5
2015-Jun-26 06:32N 54°09' E 009°21'6 6.5
2015-Jun-26 05:33N 54°11' E 009°31'8 8.0
2015-Jun-26 04:33N 54°17' E 009°40'6 6.3
2015-Jun-26 03:34N 54°22' E 009°48'6 5.8
2015-Jun-26 02:33N 54°21' E 009°58'6 6.2
2015-Jun-26 01:33N 54°22' E 010°08'3 2.5
2015-Jun-26 00:33N 54°23' E 010°12'1110.9
2015-Jun-25 23:33N 54°32' E 010°24'1212.2
2015-Jun-25 22:33N 54°35' E 010°45'1212.2
2015-Jun-25 21:33N 54°36' E 011°06'1211.9
2015-Jun-25 20:33N 54°33' E 011°25'1212.1
2015-Jun-25 19:34N 54°29' E 011°45'1212.0
2015-Jun-25 18:32N 54°27' E 012°06'10611.6
2015-Jun-25 09:23N 55°27' E 014°39'1012.0
2015-Jun-25 08:32N 55°32' E 014°54'1212.2
2015-Jun-25 07:31N 55°38' E 015°13'12811.2
2015-Jun-24 20:04N 57°19' E 017°36'  

Dump ship's entire track history